Time;durP1;ratioP1;P1;durP2;ratioP2;P2;SDS_P1;SDS_P2;PMS_P1;PMS_P2;Temp;Humidity;BMP_temperature;BMP_pressure;BME280_temperature;BME280_humidity;BME280_pressure;Samples;Min_cycle;Max_cycle;Signal;HPM_P1;HPM_P2
2022/07/26 00:01:16;;;;;;;;;2.33;2.33;;;;;22.43;81.35;100403.25;6307304;22;45194;-96
2022/07/26 00:03:41;;;;;;;;;2.33;1.33;;;;;22.42;81.25;100412.16;6288860;22;45187;-96
2022/07/26 00:06:07;;;;;;;;;2.33;1.00;;;;;22.35;81.62;100401.53;6288110;22;46941;-96
2022/07/26 00:08:32;;;;;;;;;0.00;0.00;;;;;22.35;81.87;100402.41;6288750;22;45641;-96
2022/07/26 00:10:58;;;;;;;;;1.00;1.00;;;;;22.26;82.03;100389.16;6288925;22;45440;-96
2022/07/26 00:13:23;;;;;;;;;1.00;1.00;;;;;22.27;82.05;100421.19;6289906;22;45703;-95
2022/07/26 00:15:49;;;;;;;;;0.00;0.00;;;;;22.29;82.19;100430.09;6289140;22;48470;-96
2022/07/26 00:18:15;;;;;;;;;1.67;1.00;;;;;22.30;82.27;100447.91;6287819;22;45859;-96
2022/07/26 00:20:41;;;;;;;;;1.33;0.67;;;;;22.16;82.76;100431.97;6307109;22;45505;-96
2022/07/26 00:23:07;;;;;;;;;1.33;1.33;;;;;22.09;82.86;100422.25;6281392;22;45281;-97
2022/07/26 00:25:32;;;;;;;;;1.67;1.00;;;;;22.11;83.00;100431.16;6309289;22;48135;-96
2022/07/26 00:27:58;;;;;;;;;1.00;1.00;;;;;22.14;82.89;100444.47;6280114;22;45333;-95
2022/07/26 00:30:24;;;;;;;;;1.00;1.00;;;;;21.99;83.19;100432.13;6280871;22;45172;-96
2022/07/26 00:32:51;;;;;;;;;2.67;0.00;;;;;22.02;83.00;100453.47;6306197;22;45695;-96
2022/07/26 00:35:17;;;;;;;;;0.00;0.00;;;;;21.95;83.28;100441.97;6306553;22;47120;-96
2022/07/26 00:37:42;;;;;;;;;3.00;2.00;;;;;21.96;83.78;100464.19;6279038;22;45674;-95
2022/07/26 00:40:08;;;;;;;;;1.00;1.00;;;;;21.91;83.84;100455.31;6279831;22;45320;-96
2022/07/26 00:42:33;;;;;;;;;1.00;1.00;;;;;21.89;83.73;100455.34;6279627;22;45777;-96
2022/07/26 00:44:59;;;;;;;;;1.00;1.00;;;;;21.87;84.20;100462.50;6279646;22;48221;-96
2022/07/26 00:47:25;;;;;;;;;1.00;1.00;;;;;21.83;84.30;100448.22;6279779;22;45233;-96
2022/07/26 00:49:52;;;;;;;;;0.00;0.00;;;;;21.77;84.45;100437.59;6282003;22;45297;-95
2022/07/26 00:52:17;;;;;;;;;1.00;1.00;;;;;21.78;84.46;100458.03;6281443;22;45570;-96
2022/07/26 00:54:44;;;;;;;;;1.33;1.33;;;;;21.65;84.64;100427.84;6281704;22;47332;-96
2022/07/26 00:57:11;;;;;;;;;2.00;1.00;;;;;21.72;85.03;100439.41;6280739;22;45236;-96
2022/07/26 00:59:37;;;;;;;;;1.00;1.00;;;;;21.64;84.61;100434.09;6282591;22;45365;-96
2022/07/26 01:02:04;;;;;;;;;1.00;1.00;;;;;21.54;85.12;100433.28;6306502;22;45416;-96
2022/07/26 01:04:29;;;;;;;;;0.67;0.67;;;;;21.62;85.14;100438.56;6304775;22;48124;-95
2022/07/26 01:06:55;;;;;;;;;1.00;0.00;;;;;21.53;85.31;100434.16;6281377;22;45427;-96
2022/07/26 01:09:21;;;;;;;;;1.00;1.00;;;;;21.55;85.56;100440.38;6281677;22;45431;-96
2022/07/26 01:11:46;;;;;;;;;0.67;0.67;;;;;21.46;85.48;100427.97;6281821;22;45447;-96
2022/07/26 01:14:12;;;;;;;;;1.00;1.00;;;;;21.47;86.01;100424.38;6281844;22;48167;-96
2022/07/26 01:16:38;;;;;;;;;2.00;0.00;;;;;21.38;85.69;100427.13;6283284;22;45246;-96
2022/07/26 01:19:03;;;;;;;;;0.00;0.00;;;;;21.39;85.92;100426.22;6281577;22;45341;-96
2022/07/26 01:21:31;;;;;;;;;1.00;1.00;;;;;21.42;86.30;100431.53;6281263;22;45542;-96
2022/07/26 01:23:57;;;;;;;;;1.00;0.00;;;;;21.41;85.67;100432.44;6284215;22;47300;-96
2022/07/26 01:26:22;;;;;;;;;1.00;0.67;;;;;21.28;85.86;100427.16;6284147;22;45175;-96
2022/07/26 01:28:50;;;;;;;;;0.00;0.00;;;;;21.34;86.53;100434.25;6283474;22;45301;-96
2022/07/26 01:31:16;;;;;;;;;1.33;1.33;;;;;21.24;86.31;100419.16;6281539;22;45518;-96
2022/07/26 01:33:42;;;;;;;;;1.00;1.00;;;;;21.31;86.32;100431.59;6280253;22;47206;-96
2022/07/26 01:36:08;;;;;;;;;1.00;1.00;;;;;21.20;86.65;100410.28;6306077;22;45223;-96
2022/07/26 01:38:33;;;;;;;;;1.00;1.00;;;;;21.19;86.67;100417.41;6279598;22;45173;-96
2022/07/26 01:40:59;;;;;;;;;0.00;0.00;;;;;21.23;86.60;100425.41;6280069;22;45230;-96
2022/07/26 01:43:24;;;;;;;;;2.00;0.00;;;;;21.21;87.01;100420.94;6280145;22;46893;-96
2022/07/26 01:45:50;;;;;;;;;1.67;1.00;;;;;21.19;87.09;100419.19;6281656;22;45323;-96
2022/07/26 01:48:15;;;;;;;;;0.00;0.00;;;;;21.16;86.96;100420.09;6287525;22;45199;-96
2022/07/26 01:50:41;;;;;;;;;0.67;0.00;;;;;21.16;87.24;100421.84;6288924;22;45251;-96
2022/07/26 01:53:06;;;;;;;;;0.33;0.00;;;;;21.10;87.59;100417.47;6314382;22;47185;-96
2022/07/26 01:55:32;;;;;;;;;0.00;0.00;;;;;21.17;87.90;100432.53;6289268;22;44689;-96
2022/07/26 01:57:57;;;;;;;;;1.00;1.00;;;;;21.02;87.94;100406.81;6287805;22;45226;-96
2022/07/26 02:00:23;;;;;;;;;0.67;0.67;;;;;20.95;88.52;100397.03;6286482;22;45636;-96
2022/07/26 02:02:48;;;;;;;;;1.00;1.00;;;;;20.96;88.28;100398.78;6287031;22;47160;-95
2022/07/26 02:05:13;;;;;;;;;2.00;1.00;;;;;21.05;88.36;100422.81;6286832;22;44737;-96
2022/07/26 02:07:42;;;;;;;;;3.00;1.00;;;;;20.93;88.52;100405.00;6286414;22;44992;-96
2022/07/26 02:10:08;;;;;;;;;1.33;0.33;;;;;20.90;88.75;100399.69;6287226;22;45339;-96
2022/07/26 02:12:34;;;;;;;;;1.00;1.00;;;;;20.86;88.75;100400.59;6283091;22;47050;-96
2022/07/26 02:14:59;;;;;;;;;0.00;0.00;;;;;20.88;88.79;100418.38;6279664;22;45471;-96
2022/07/26 02:17:25;;;;;;;;;0.00;0.00;;;;;20.84;89.04;100402.38;6279380;22;45259;-96
2022/07/26 02:19:51;;;;;;;;;0.00;0.00;;;;;20.84;89.51;100395.28;6279316;22;45719;-96
2022/07/26 02:22:17;;;;;;;;;0.00;0.00;;;;;20.78;89.23;100405.97;6278890;22;46981;-94
2022/07/26 02:24:43;;;;;;;;;0.00;0.00;;;;;20.77;90.03;100383.72;6280036;22;45238;-96
2022/07/26 02:27:08;;;;;;;;;2.33;1.00;;;;;20.84;90.31;100399.72;6283420;22;45988;-96
2022/07/26 02:29:34;;;;;;;;;0.00;0.00;;;;;20.70;90.19;100389.97;6281902;22;45452;-96
2022/07/26 02:31:59;;;;;;;;;0.00;0.00;;;;;20.68;89.97;100389.09;6281588;22;47149;-96
2022/07/26 02:34:25;;;;;;;;;0.33;0.33;;;;;20.82;90.11;100420.19;6280328;22;45574;-96
2022/07/26 02:36:51;;;;;;;;;1.00;1.00;;;;;20.64;90.28;100390.00;6281075;22;45187;-96
2022/07/26 02:39:16;;;;;;;;;1.00;1.00;;;;;20.63;90.15;100393.56;6282287;22;45297;-96
2022/07/26 02:41:41;;;;;;;;;1.00;1.00;;;;;20.60;90.46;100388.22;6280907;22;46953;-96
2022/07/26 02:44:08;;;;;;;;;0.33;0.00;;;;;20.64;90.99;100398.00;6285310;22;45285;-96
2022/07/26 02:46:34;;;;;;;;;1.00;1.00;;;;;20.65;90.71;100408.66;6283987;22;44681;-96
2022/07/26 02:48:59;;;;;;;;;0.00;0.00;;;;;20.52;91.30;100381.13;6279854;22;45404;-96
2022/07/26 02:51:26;;;;;;;;;1.67;0.00;;;;;20.62;91.67;100408.66;6281830;22;47399;-96
2022/07/26 02:53:52;;;;;;;;;1.00;1.00;;;;;20.50;91.48;100390.91;6282237;22;45617;-96
2022/07/26 02:56:18;;;;;;;;;0.00;0.00;;;;;20.60;91.49;100402.44;6280069;22;45272;-96
2022/07/26 02:58:44;;;;;;;;;1.00;1.00;;;;;20.59;91.81;100403.31;6279601;22;45408;-96
2022/07/26 03:01:10;;;;;;;;;1.00;1.00;;;;;20.61;92.07;100400.66;6279557;22;47086;-96
2022/07/26 03:03:35;;;;;;;;;2.00;0.33;;;;;20.49;92.31;100386.47;6279068;22;45404;-96
2022/07/26 03:06:01;;;;;;;;;2.67;0.00;;;;;20.49;92.50;100383.78;6281557;22;45624;-96
2022/07/26 03:08:26;;;;;;;;;2.00;1.00;;;;;20.54;92.68;100394.44;6281990;22;45496;-96
2022/07/26 03:10:51;;;;;;;;;0.00;0.00;;;;;20.44;92.90;100382.91;6282307;22;47029;-96
2022/07/26 03:13:17;;;;;;;;;0.67;0.67;;;;;20.52;93.05;100401.56;6282613;22;45484;-97
2022/07/26 03:15:42;;;;;;;;;1.00;1.00;;;;;20.45;93.47;100383.81;6314595;22;45327;-96
2022/07/26 03:18:13;;;;;;;;;1.00;1.00;;;;;20.47;93.78;100390.00;6288779;22;45258;-96
2022/07/26 03:20:38;;;;;;;;;0.67;0.00;;;;;20.34;93.78;100375.81;6294022;22;47223;-96
2022/07/26 03:23:04;;;;;;;;;0.67;0.67;;;;;20.28;93.90;100366.06;6289583;22;45886;-96
2022/07/26 03:25:29;;;;;;;;;2.67;1.33;;;;;20.32;93.68;100370.50;6293948;22;44793;-96
2022/07/26 03:27:58;;;;;;;;;2.00;0.33;;;;;20.27;94.30;100353.63;6295254;22;44815;-96
2022/07/26 03:30:24;;;;;;;;;1.00;1.00;;;;;20.39;94.84;100376.69;6291168;22;47316;-96
2022/07/26 03:32:50;;;;;;;;;1.00;1.00;;;;;20.31;94.68;100360.72;6290946;22;45194;-96
2022/07/26 03:35:15;;;;;;;;;2.00;2.00;;;;;20.30;95.37;100350.97;6287299;22;45299;-96
2022/07/26 03:37:41;;;;;;;;;2.00;0.67;;;;;20.38;95.42;100369.63;6308155;22;45457;-96
2022/07/26 03:40:07;;;;;;;;;0.33;0.33;;;;;20.41;95.21;100374.94;6292055;22;47131;-96
2022/07/26 03:42:34;;;;;;;;;1.00;1.00;;;;;20.41;95.68;100374.94;6290399;22;45204;-96
2022/07/26 03:44:59;;;;;;;;;0.00;0.00;;;;;20.39;95.72;100371.38;6289713;22;45826;-96
2022/07/26 03:47:25;;;;;;;;;0.00;0.00;;;;;20.34;96.08;100370.50;6291505;22;45265;-96
2022/07/26 03:49:50;;;;;;;;;0.00;0.00;;;;;20.31;96.04;100366.94;6292535;22;48479;-96
2022/07/26 03:52:16;;;;;;;;;0.67;0.67;;;;;20.24;96.09;100374.94;6291842;22;45261;-96
2022/07/26 03:54:41;;;;;;;;;1.00;1.00;;;;;20.21;96.59;100368.75;6293725;22;45340;-96
2022/07/26 03:57:06;;;;;;;;;2.67;0.00;;;;;20.20;97.04;100364.28;6293396;22;45259;-96
2022/07/26 03:59:32;;;;;;;;;0.33;0.33;;;;;20.22;96.85;100361.63;6294304;22;47077;-96
2022/07/26 04:01:57;;;;;;;;;3.00;1.00;;;;;20.17;97.07;100347.44;6291540;22;45406;-96
2022/07/26 04:04:23;;;;;;;;;1.00;1.00;;;;;20.18;97.04;100349.19;6293005;22;44780;-96
2022/07/26 04:06:48;;;;;;;;;1.00;1.00;;;;;20.23;97.19;100347.41;6287533;22;45428;-96
2022/07/26 04:09:14;;;;;;;;;2.00;0.33;;;;;20.36;97.33;100376.72;6284426;22;47009;-96
2022/07/26 04:11:41;;;;;;;;;2.00;1.00;;;;;20.28;97.21;100352.75;6308020;22;45691;-96
2022/07/26 04:14:07;;;;;;;;;1.00;1.00;;;;;20.32;97.47;100366.06;6282362;22;45308;-96
2022/07/26 04:16:33;;;;;;;;;1.00;1.00;;;;;20.35;98.26;100369.63;6280434;22;45407;-95
2022/07/26 04:18:58;;;;;;;;;0.00;0.00;;;;;20.37;97.79;100368.72;6278610;22;47398;-96
2022/07/26 04:21:23;;;;;;;;;1.67;1.00;;;;;20.41;97.99;100366.94;6280903;22;45846;-96
2022/07/26 04:23:50;;;;;;;;;1.00;1.00;;;;;20.47;97.92;100369.59;6279504;22;45364;-96
2022/07/26 04:26:15;;;;;;;;;2.00;2.00;;;;;20.37;98.71;100352.72;6305037;22;45427;-96
2022/07/26 04:28:41;;;;;;;;;1.67;0.67;;;;;20.40;98.76;100352.72;6279105;22;47970;-96
2022/07/26 04:31:07;;;;;;;;;0.00;0.00;;;;;20.43;98.46;100351.84;6278809;22;45320;-96
2022/07/26 04:33:32;;;;;;;;;1.67;1.00;;;;;20.53;98.66;100358.03;6279450;22;45305;-96
2022/07/26 04:35:59;;;;;;;;;0.00;0.00;;;;;20.52;98.90;100357.13;6279745;22;45420;-96
2022/07/26 04:38:24;;;;;;;;;1.00;1.00;;;;;20.57;98.89;100362.44;6278605;22;48407;-96
2022/07/26 04:40:50;;;;;;;;;2.00;1.00;;;;;20.51;99.12;100339.34;6281178;22;45348;-96
2022/07/26 04:43:16;;;;;;;;;2.33;1.00;;;;;20.61;99.28;100358.00;6306212;22;45271;-96
2022/07/26 04:45:45;;;;;;;;;2.00;1.00;;;;;20.67;99.40;100362.44;6279733;22;45627;-96
2022/07/26 04:48:11;;;;;;;;;1.00;1.00;;;;;20.64;99.14;100353.53;6281384;22;48052;-95
2022/07/26 04:50:37;;;;;;;;;1.00;1.00;;;;;20.64;99.71;100352.69;6278477;22;45377;-96
2022/07/26 04:53:02;;;;;;;;;1.00;1.00;;;;;20.71;99.75;100359.75;6279044;22;45380;-94
2022/07/26 04:55:28;;;;;;;;;2.00;2.00;;;;;20.78;99.86;100360.63;6278941;22;45392;-94
2022/07/26 04:57:53;;;;;;;;;0.00;0.00;;;;;20.75;99.88;100357.94;6278766;22;47177;-96
2022/07/26 05:00:22;;;;;;;;;1.00;1.00;;;;;20.89;99.63;100381.94;6304693;22;46002;-96
2022/07/26 05:02:49;;;;;;;;;1.33;1.33;;;;;20.82;99.65;100362.38;6278685;22;45377;-96
2022/07/26 05:05:14;;;;;;;;;1.00;1.00;;;;;20.91;99.87;100382.81;6305157;22;45551;-95
2022/07/26 05:07:40;;;;;;;;;1.00;0.67;;;;;20.98;100.00;100380.97;6284848;22;47077;-96
2022/07/26 05:10:08;;;;;;;;;1.00;1.00;;;;;20.89;100.00;100360.59;6292158;22;45393;-96
2022/07/26 05:12:37;;;;;;;;;1.00;1.00;;;;;20.99;100.00;100386.34;6308864;22;45214;-96
2022/07/26 05:15:03;;;;;;;;;2.00;2.00;;;;;20.98;99.98;100367.66;6288377;22;45612;-96
2022/07/26 05:17:29;;;;;;;;;2.67;2.67;;;;;21.00;100.00;100371.22;6285343;22;46915;-96
2022/07/26 05:19:56;;;;;;;;;1.67;1.67;;;;;20.99;100.00;100370.31;6289285;22;45424;-96
2022/07/26 05:22:24;;;;;;;;;0.67;0.67;;;;;21.07;100.00;100374.78;6294167;22;45138;-96
2022/07/26 05:24:49;;;;;;;;;0.00;0.00;;;;;21.04;100.00;100375.66;6294158;22;44860;-96
2022/07/26 05:27:14;;;;;;;;;2.00;2.00;;;;;21.05;100.00;100369.44;6294732;22;47743;-96
2022/07/26 05:29:40;;;;;;;;;2.00;0.33;;;;;21.13;100.00;100381.88;6292317;22;45183;-96
2022/07/26 05:32:05;;;;;;;;;1.00;1.00;;;;;21.02;100.00;100364.13;6297110;22;45166;-96
2022/07/26 05:34:31;;;;;;;;;2.00;2.00;;;;;21.09;100.00;100376.53;6290554;22;45216;-96
2022/07/26 05:36:56;;;;;;;;;1.33;1.33;;;;;21.17;100.00;100386.28;6292475;22;48260;-96
2022/07/26 05:39:22;;;;;;;;;3.00;2.00;;;;;21.17;100.00;100388.94;6295197;22;45294;-96
2022/07/26 05:41:48;;;;;;;;;3.33;1.33;;;;;21.14;100.00;100383.63;6299575;22;44681;-96
2022/07/26 05:44:14;;;;;;;;;3.33;2.67;;;;;21.15;100.00;100377.41;6296422;22;44828;-96
2022/07/26 05:46:42;;;;;;;;;2.00;2.00;;;;;21.16;100.00;100379.16;6296345;22;46844;-96
2022/07/26 05:49:08;;;;;;;;;2.00;1.00;;;;;21.26;100.00;100393.38;6296443;22;45307;-96
2022/07/26 05:51:33;;;;;;;;;2.00;1.00;;;;;21.17;100.00;100370.28;6297661;22;45489;-96
2022/07/26 05:53:59;;;;;;;;;2.33;1.00;;;;;21.22;100.00;100371.13;6297084;22;44737;-96
2022/07/26 05:56:25;;;;;;;;;4.67;1.67;;;;;21.28;100.00;100381.81;6296234;22;47248;-96
2022/07/26 05:58:55;;;;;;;;;0.67;0.67;;;;;21.36;100.00;100392.44;6295646;22;45290;-96
2022/07/26 06:01:21;;;;;;;;;2.00;1.00;;;;;21.35;100.00;100381.75;6296479;22;44745;-96
2022/07/26 06:03:55;;;;;;;;;2.00;2.00;;;;;21.32;100.00;100390.66;6297011;22;45396;-96
2022/07/26 06:06:20;;;;;;;;;3.00;3.00;;;;;21.29;100.00;100390.66;6293623;22;46334;-96
2022/07/26 06:08:46;;;;;;;;;2.00;2.00;;;;;21.40;100.00;100409.31;6320633;22;45326;-96
2022/07/26 06:11:12;;;;;;;;;1.00;1.00;;;;;21.21;100.00;100380.91;6296647;22;44847;-96
2022/07/26 06:13:56;;;;;;;;;3.00;0.00;;;;;21.17;100.00;100375.59;6294667;22;45525;-96
2022/07/26 06:16:21;;;;;;;;;1.67;1.00;;;;;21.20;100.00;100387.16;6292564;22;46948;-96
2022/07/26 06:18:47;;;;;;;;;3.67;2.67;;;;;21.36;100.00;100410.22;6295601;22;46210;-96
2022/07/26 06:21:23;;;;;;;;;1.00;1.00;;;;;21.26;100.00;100388.91;6268407;22;45371;-96
2022/07/26 06:23:50;;;;;;;;;3.00;2.00;;;;;21.21;100.00;100383.59;6293506;22;44893;-96
2022/07/26 06:26:16;;;;;;;;;1.67;1.00;;;;;21.34;100.00;100396.00;6292536;22;47936;-96
2022/07/26 06:28:42;;;;;;;;;2.33;2.33;;;;;21.36;100.00;100384.44;6266402;22;45242;-96
2022/07/26 06:31:13;;;;;;;;;1.00;1.00;;;;;21.55;100.00;100405.66;6297540;22;45283;-96
2022/07/26 06:33:58;;;;;;;;;3.00;3.00;;;;;21.50;100.00;100399.47;6319858;22;45341;-96
2022/07/26 06:36:29;;;;;;;;;1.00;1.00;;;;;21.50;100.00;100386.09;6296780;22;47418;-96
2022/07/26 06:38:57;;;;;;;;;4.00;2.00;;;;;21.66;100.00;100410.94;6272223;22;45585;-96
2022/07/26 06:41:23;;;;;;;;;4.00;2.33;;;;;21.57;100.00;100400.31;6274383;22;45494;-92
2022/07/26 06:43:48;;;;;;;;;1.33;1.33;;;;;21.64;100.00;100408.28;6271888;22;45516;-93
2022/07/26 06:46:13;;;;;;;;;3.00;2.00;;;;;21.65;100.00;100420.72;6271611;22;46949;-93
2022/07/26 06:48:39;;;;;;;;;1.00;1.00;;;;;21.64;100.00;100424.31;6276326;22;45341;-95
2022/07/26 06:51:04;;;;;;;;;2.00;2.00;;;;;21.64;100.00;100416.31;6271051;22;61714;-92
2022/07/26 06:53:30;;;;;;;;;1.67;1.67;;;;;21.65;100.00;100419.84;6252315;22;45381;-95
2022/07/26 06:55:55;;;;;;;;;2.33;2.33;;;;;21.68;100.00;100421.59;6277869;22;46900;-96
2022/07/26 06:58:20;;;;;;;;;2.33;1.33;;;;;21.72;100.00;100424.28;6276384;22;51943;-96
2022/07/26 07:00:45;;;;;;;;;2.00;2.00;;;;;21.75;100.00;100423.38;6273719;22;45297;-95
2022/07/26 07:03:11;;;;;;;;;1.00;1.00;;;;;21.79;100.00;100425.09;6271012;22;45483;-90
2022/07/26 07:05:36;;;;;;;;;1.00;1.00;;;;;21.87;100.00;100425.09;6273445;22;54100;-92
2022/07/26 07:08:01;;;;;;;;;1.00;1.00;;;;;21.94;100.00;100415.22;6273365;22;56070;-96
2022/07/26 07:10:27;;;;;;;;;2.33;2.33;;;;;22.00;100.00;100428.56;6272649;22;45303;-95
2022/07/26 07:12:52;;;;;;;;;1.67;1.67;;;;;22.03;100.00;100427.66;6275055;22;45409;-89
2022/07/26 07:15:18;;;;;;;;;0.67;0.67;;;;;22.07;100.00;100432.06;6273034;22;56211;-87
2022/07/26 07:17:43;;;;;;;;;1.33;1.00;;;;;22.08;100.00;100424.06;6275406;22;45359;-95
2022/07/26 07:20:09;;;;;;;;;5.00;4.00;;;;;22.20;100.00;100435.53;6271514;22;45270;-85
2022/07/26 07:22:34;;;;;;;;;1.00;1.00;;;;;22.28;100.00;100438.13;6272107;22;45687;-84
2022/07/26 07:25:00;;;;;;;;;2.67;2.33;;;;;22.34;100.00;100438.09;6273031;22;46187;-84
2022/07/26 07:27:25;;;;;;;;;2.00;1.00;;;;;22.43;100.00;100442.44;6271850;22;45510;-83
2022/07/26 07:29:51;;;;;;;;;1.00;1.00;;;;;22.49;100.00;100437.06;6284959;22;45309;-96
2022/07/26 07:32:17;;;;;;;;;1.00;1.00;;;;;22.59;100.00;100442.31;6259200;22;45523;-96
2022/07/26 07:34:44;;;;;;;;;1.33;1.33;;;;;22.66;100.00;100441.34;6289088;22;47809;-96
2022/07/26 07:37:11;;;;;;;;;1.00;1.00;;;;;22.80;100.00;100456.41;6253599;22;45357;-84
2022/07/26 07:39:36;;;;;;;;;2.00;1.00;;;;;22.85;100.00;100452.78;6269117;22;45479;-83
2022/07/26 07:42:02;;;;;;;;;2.33;2.33;;;;;22.93;100.00;100449.13;6241707;22;45415;-83
2022/07/26 07:44:27;;;;;;;;;3.00;3.00;;;;;23.02;100.00;100451.69;6240376;22;47416;-83
2022/07/26 07:46:52;;;;;;;;;2.00;1.00;;;;;23.14;99.62;100455.16;6242404;22;45320;-82
2022/07/26 07:49:17;;;;;;;;;1.67;1.67;;;;;23.21;99.43;100451.50;6240764;22;45280;-83
2022/07/26 07:51:43;;;;;;;;;3.00;3.00;;;;;23.25;98.96;100455.88;6237923;22;45295;-84
2022/07/26 07:54:08;;;;;;;;;1.00;1.00;;;;;23.26;99.20;100459.47;6240608;22;52755;-83
2022/07/26 07:56:33;;;;;;;;;3.00;2.00;;;;;23.37;98.72;100467.38;6240934;22;50094;-83
2022/07/26 07:58:59;;;;;;;;;2.00;2.00;;;;;23.41;98.42;100469.09;6238385;22;45393;-85
2022/07/26 08:01:24;;;;;;;;;2.00;2.00;;;;;23.47;98.50;100469.03;6239350;22;45362;-83
2022/07/26 08:03:49;;;;;;;;;1.00;1.00;;;;;23.51;97.99;100469.88;6238799;22;46533;-83
2022/07/26 08:06:15;;;;;;;;;2.00;2.00;;;;;23.55;97.84;100471.63;6239898;22;65293;-84
2022/07/26 08:08:40;;;;;;;;;2.33;2.33;;;;;23.64;98.02;100478.63;6240830;22;45423;-85
2022/07/26 08:11:06;;;;;;;;;2.33;2.33;;;;;23.68;97.53;100476.81;6241620;22;45392;-84
2022/07/26 08:13:31;;;;;;;;;1.33;1.33;;;;;23.72;96.94;100476.75;6241476;22;46396;-84
2022/07/26 08:15:57;;;;;;;;;2.00;2.00;;;;;23.83;97.12;100478.38;6241532;22;45410;-84
2022/07/26 08:18:22;;;;;;;;;2.00;2.00;;;;;23.92;96.84;100480.03;6234297;22;45414;-83
2022/07/26 08:20:49;;;;;;;;;2.33;2.33;;;;;24.00;96.63;100467.41;6241674;22;45358;-85
2022/07/26 08:23:14;;;;;;;;;2.00;2.00;;;;;24.09;95.93;100479.78;6212415;22;47492;-85
2022/07/26 08:25:39;;;;;;;;;5.00;2.00;;;;;24.13;95.56;100484.19;6240706;22;45809;-84
2022/07/26 08:28:05;;;;;;;;;2.00;1.00;;;;;24.16;95.83;100489.50;6241409;22;45337;-85
2022/07/26 08:30:31;;;;;;;;;1.33;1.00;;;;;24.18;95.17;100481.44;6241865;22;45322;-88
2022/07/26 08:32:56;;;;;;;;;3.67;1.33;;;;;24.22;95.40;100483.16;6240589;22;45343;-88
2022/07/26 08:35:22;;;;;;;;;3.67;3.00;;;;;24.27;94.75;100485.81;6240477;22;45386;-86
2022/07/26 08:37:47;;;;;;;;;1.33;1.33;;;;;24.33;94.85;100493.72;6240168;22;45730;-87
2022/07/26 08:40:13;;;;;;;;;2.00;2.00;;;;;24.32;94.64;100492.88;6241244;22;45626;-88
2022/07/26 08:42:38;;;;;;;;;1.33;1.00;;;;;24.32;94.40;100484.81;6240152;22;46177;-90
2022/07/26 08:45:04;;;;;;;;;2.33;2.33;;;;;24.32;94.59;100495.56;6241528;22;45601;-89
2022/07/26 08:47:29;;;;;;;;;2.00;1.00;;;;;24.31;94.41;100492.88;6240189;22;45274;-85
2022/07/26 08:49:55;;;;;;;;;1.00;0.33;;;;;24.32;94.41;100497.34;6241427;22;45240;-85
2022/07/26 08:52:20;;;;;;;;;1.67;1.67;;;;;24.25;94.09;100498.31;6241080;22;45535;-84
2022/07/26 08:54:50;;;;;;;;;1.67;1.00;;;;;24.22;94.20;100499.25;6240516;22;45282;-86
2022/07/26 08:57:16;;;;;;;;;4.00;3.00;;;;;24.20;94.13;100503.72;6212885;22;45206;-87
2022/07/26 08:59:42;;;;;;;;;2.00;1.33;;;;;24.19;94.35;100502.88;6240908;22;45346;-87
2022/07/26 09:02:10;;;;;;;;;1.67;1.33;;;;;24.20;93.90;100501.06;6240946;22;45227;-87
2022/07/26 09:04:41;;;;;;;;;3.33;1.00;;;;;24.19;93.85;100504.66;6240586;22;45754;-87
2022/07/26 09:07:10;;;;;;;;;2.00;2.00;;;;;24.19;93.90;100504.66;6241287;22;45274;-86
2022/07/26 09:09:57;;;;;;;;;2.00;2.00;;;;;24.24;94.01;100504.59;6240749;22;45260;-87
2022/07/26 09:12:24;;;;;;;;;1.00;1.00;;;;;24.30;93.82;100510.75;6238608;22;45496;-86
2022/07/26 09:14:50;;;;;;;;;2.67;1.00;;;;;24.37;93.62;100514.25;6242183;22;45374;-86
2022/07/26 09:17:18;;;;;;;;;3.33;2.00;;;;;24.39;93.39;100511.53;6240512;22;45446;-85
2022/07/26 09:19:44;;;;;;;;;2.00;2.00;;;;;24.40;92.80;100527.63;6242349;22;45387;-90
2022/07/26 09:22:12;;;;;;;;;1.33;0.33;;;;;24.37;92.51;100529.44;6240002;22;45497;-87
2022/07/26 09:24:42;;;;;;;;;2.00;2.00;;;;;24.35;92.74;100529.47;6245075;22;45432;-87
2022/07/26 09:27:11;;;;;;;;;1.33;0.00;;;;;24.33;92.88;100520.53;6243409;22;45346;-86
2022/07/26 09:29:49;;;;;;;;;5.33;2.33;;;;;24.36;92.71;100524.97;6240446;22;45693;-83
2022/07/26 09:32:20;;;;;;;;;1.33;1.33;;;;;24.42;92.82;100523.09;6240389;22;46086;-85
2022/07/26 09:35:08;;;;;;;;;1.00;1.00;;;;;24.49;92.67;100529.25;6238544;22;45410;-84
2022/07/26 09:37:45;;;;;;;;;1.33;1.33;;;;;24.59;92.33;100524.59;6239525;22;45389;-84
2022/07/26 09:40:13;;;;;;;;;1.67;1.33;;;;;24.65;92.04;100535.25;6240326;22;45427;-82
2022/07/26 09:43:02;;;;;;;;;2.00;2.00;;;;;24.77;91.43;100536.81;6239621;22;45686;-86
2022/07/26 09:45:29;;;;;;;;;4.00;1.67;;;;;24.83;90.59;100543.00;6240593;22;45393;-90
2022/07/26 09:47:55;;;;;;;;;0.00;0.00;;;;;24.94;89.96;100549.06;6243495;22;45370;-96
2022/07/26 09:50:23;;;;;;;;;1.00;1.00;;;;;25.05;90.03;100545.34;6248635;22;45544;-95
2022/07/26 09:53:08;;;;;;;;;1.00;1.00;;;;;25.26;89.26;100549.38;6243078;22;48364;-86
2022/07/26 09:55:54;;;;;;;;;2.33;0.33;;;;;25.47;88.69;100557.03;6240604;22;45387;-85
2022/07/26 09:58:20;;;;;;;;;0.67;0.67;;;;;25.64;88.43;100562.94;6240968;22;45309;-85
2022/07/26 10:00:46;;;;;;;;;1.00;1.00;;;;;25.85;88.27;100566.13;6240712;22;45356;-85
2022/07/26 10:03:12;;;;;;;;;0.67;0.67;;;;;26.05;87.68;100556.75;6240350;22;45424;-86
2022/07/26 10:05:37;;;;;;;;;0.67;0.67;;;;;26.29;86.70;100573.22;6241149;22;45410;-86
2022/07/26 10:08:05;;;;;;;;;2.00;1.00;;;;;26.51;86.60;100574.56;6240494;22;45724;-85
2022/07/26 10:10:45;;;;;;;;;0.00;0.00;;;;;26.72;85.59;100586.63;6241249;22;45335;-86
2022/07/26 10:13:10;;;;;;;;;2.00;2.00;;;;;26.88;85.23;100580.81;6240810;22;45336;-86
2022/07/26 10:15:40;;;;;;;;;0.00;0.00;;;;;27.05;84.31;100601.94;6240528;22;45220;-85
2022/07/26 10:18:08;;;;;;;;;1.00;1.00;;;;;27.18;83.70;100602.53;6240591;22;45274;-85
2022/07/26 10:20:39;;;;;;;;;1.00;1.00;;;;;27.23;82.44;100621.25;6241002;22;45354;-85
2022/07/26 10:23:32;;;;;;;;;1.00;1.00;;;;;27.15;81.95;100626.84;6239776;22;45496;-86
2022/07/26 10:25:57;;;;;;;;;1.00;0.00;;;;;27.03;81.61;100619.06;6240247;22;45531;-85
2022/07/26 10:28:28;;;;;;;;;0.00;0.00;;;;;26.99;81.33;100626.31;6242295;22;45422;-85
2022/07/26 10:31:21;;;;;;;;;1.00;1.00;;;;;27.06;81.39;100627.91;6241364;22;45604;-89
2022/07/26 10:33:49;;;;;;;;;0.33;0.33;;;;;27.19;81.63;100631.22;6239007;22;48219;-88
2022/07/26 10:36:26;;;;;;;;;1.00;1.00;;;;;27.29;81.26;100625.59;6238925;22;45326;-88
2022/07/26 10:38:57;;;;;;;;;1.33;1.33;;;;;27.39;80.78;100637.91;6240583;22;45358;-89
2022/07/26 10:41:43;;;;;;;;;1.00;0.67;;;;;27.45;80.70;100636.81;6240085;22;45561;-89
2022/07/26 10:44:25;;;;;;;;;0.00;0.00;;;;;27.45;80.12;100647.59;6240334;22;45422;-89
2022/07/26 10:46:54;;;;;;;;;2.00;2.00;;;;;27.45;79.82;100645.78;6241294;22;45311;-89
2022/07/26 10:49:27;;;;;;;;;1.00;0.00;;;;;27.44;79.30;100657.50;6243618;22;45364;-89
2022/07/26 10:52:06;;;;;;;;;1.00;1.00;;;;;27.51;79.30;100652.84;6218823;22;45366;-89
2022/07/26 10:54:57;;;;;;;;;0.00;0.00;;;;;27.53;79.14;100660.88;6245699;22;45454;-89
2022/07/26 10:57:24;;;;;;;;;0.67;0.00;;;;;27.61;78.46;100657.97;6245257;22;45302;-90
2022/07/26 10:59:49;;;;;;;;;1.33;0.33;;;;;27.84;78.79;100659.16;6217889;22;45280;-90
2022/07/26 11:02:19;;;;;;;;;2.67;2.67;;;;;28.06;78.17;100669.31;6247238;22;45309;-91
2022/07/26 11:04:45;;;;;;;;;1.00;1.00;;;;;28.19;77.64;100677.94;6222593;22;47200;-89
2022/07/26 11:07:11;;;;;;;;;1.00;1.00;;;;;28.22;76.75;100685.91;6249951;22;45302;-89
2022/07/26 11:09:38;;;;;;;;;0.00;0.00;;;;;28.10;76.55;100706.94;6248216;22;45261;-89
2022/07/26 11:12:20;;;;;;;;;0.00;0.00;;;;;27.99;75.67;100834.03;6248593;22;45263;-89
2022/07/26 11:14:46;;;;;;;;;0.00;0.00;;;;;27.86;75.67;101123.81;6241390;22;45408;-90
2022/07/26 11:17:23;;;;;;;;;1.00;1.00;;;;;27.72;75.64;101168.13;6240903;22;45258;-88
2022/07/26 11:19:48;;;;;;;;;7.67;6.00;;;;;27.46;75.25;101191.09;6241028;22;45325;-88
2022/07/26 11:22:14;;;;;;;;;3.00;3.00;;;;;27.14;75.65;101195.28;6213315;22;45321;-88
2022/07/26 11:24:39;;;;;;;;;0.67;0.67;;;;;26.82;75.55;101201.13;6240215;22;46021;-88